createdAt,value
2023-03-06T00:01:12.864Z,30.93
2023-03-06T00:03:58.858Z,28.01
2023-03-06T00:06:44.842Z,29.96
2023-03-06T00:09:30.639Z,31.09
2023-03-06T00:12:16.629Z,33.85
2023-03-06T00:15:04.058Z,37.53
2023-03-06T00:17:51.627Z,38.56
2023-03-06T00:20:37.569Z,39.00
2023-03-06T00:23:23.395Z,39.17
2023-03-06T00:26:09.254Z,34.87
2023-03-06T00:28:55.251Z,36.85
2023-03-06T00:31:41.175Z,38.29
2023-03-06T00:34:27.259Z,40.25
2023-03-06T00:37:13.288Z,39.61
2023-03-06T00:39:59.126Z,39.56
2023-03-06T00:42:45.051Z,37.88
2023-03-06T00:45:30.892Z,38.82
2023-03-06T00:48:16.923Z,39.55
2023-03-06T00:51:02.924Z,38.46
2023-03-06T00:53:48.726Z,36.01
2023-03-06T00:56:34.564Z,33.70
2023-03-06T00:59:20.473Z,35.65
2023-03-06T01:02:06.459Z,36.56
2023-03-06T01:04:52.404Z,36.96
2023-03-06T01:07:38.412Z,36.91
2023-03-06T01:10:24.435Z,37.79
2023-03-06T01:13:10.377Z,38.65
2023-03-06T01:15:56.208Z,39.31
2023-03-06T01:18:42.156Z,40.75
2023-03-06T01:21:28.000Z,40.72
2023-03-06T01:24:13.933Z,39.73
2023-03-06T01:26:59.952Z,40.29
2023-03-06T01:29:46.282Z,42.01
2023-03-06T01:32:32.202Z,43.07
2023-03-06T01:35:18.786Z,43.40
2023-03-06T01:38:06.671Z,44.07
2023-03-06T01:40:52.586Z,43.68
2023-03-06T01:43:38.563Z,43.85
2023-03-06T01:46:24.521Z,44.24
2023-03-06T01:49:10.370Z,44.72
2023-03-06T01:51:56.168Z,43.31
2023-03-06T01:54:42.074Z,42.93
2023-03-06T01:57:27.984Z,42.21
2023-03-06T02:00:14.230Z,41.63
2023-03-06T02:03:00.260Z,40.62
2023-03-06T02:05:46.195Z,40.15
2023-03-06T02:08:32.004Z,41.03
2023-03-06T02:11:18.019Z,41.55
2023-03-06T02:14:03.844Z,42.76
2023-03-06T02:16:49.722Z,43.81
2023-03-06T02:19:35.529Z,43.77
2023-03-06T02:22:21.386Z,45.95
2023-03-06T02:25:07.213Z,45.75
2023-03-06T02:27:53.142Z,45.71
2023-03-06T02:30:39.052Z,45.10
2023-03-06T02:33:27.128Z,44.72
2023-03-06T02:36:12.995Z,43.70
2023-03-06T02:38:58.894Z,43.63
2023-03-06T02:41:44.801Z,43.37
2023-03-06T02:44:31.065Z,43.57
2023-03-06T02:47:16.980Z,43.04
2023-03-06T02:50:04.861Z,42.80
2023-03-06T02:52:50.629Z,43.45
2023-03-06T02:55:36.568Z,43.14
2023-03-06T02:58:22.603Z,43.88
2023-03-06T03:01:08.416Z,44.25
2023-03-06T03:03:54.273Z,43.73
2023-03-06T03:06:40.012Z,45.92
2023-03-06T03:09:25.857Z,46.21
2023-03-06T03:12:15.281Z,47.45
2023-03-06T03:15:01.069Z,47.08
2023-03-06T03:17:46.941Z,46.84
2023-03-06T03:20:32.659Z,47.21
2023-03-06T03:23:18.500Z,47.93
2023-03-06T03:26:04.409Z,48.62
2023-03-06T03:28:50.357Z,47.94
2023-03-06T03:31:36.187Z,47.51
2023-03-06T03:34:22.124Z,48.06
2023-03-06T03:37:07.943Z,48.03
2023-03-06T03:39:53.825Z,47.47
2023-03-06T03:42:39.808Z,47.37
2023-03-06T03:45:25.664Z,47.26
2023-03-06T03:48:11.585Z,45.65
2023-03-06T03:50:57.622Z,46.17
2023-03-06T03:53:43.505Z,46.86
2023-03-06T03:56:29.451Z,45.59
2023-03-06T03:59:15.429Z,46.29
2023-03-06T04:02:01.356Z,45.52
2023-03-06T04:04:49.426Z,44.79
2023-03-06T04:07:35.290Z,46.09
2023-03-06T04:10:21.244Z,46.90
2023-03-06T04:13:09.854Z,48.55
2023-03-06T04:15:55.715Z,48.43
2023-03-06T04:18:41.597Z,48.37
2023-03-06T04:21:27.488Z,46.85
2023-03-06T04:24:13.284Z,47.52
2023-03-06T04:26:59.181Z,47.77
2023-03-06T04:29:45.041Z,46.22
2023-03-06T04:32:30.969Z,46.45
2023-03-06T04:35:16.983Z,46.69
2023-03-06T04:38:02.945Z,46.98
2023-03-06T04:40:48.839Z,46.90
2023-03-06T04:43:34.806Z,46.54
2023-03-06T04:46:20.748Z,46.41
2023-03-06T04:49:06.593Z,46.02
2023-03-06T04:51:52.470Z,45.46
2023-03-06T04:54:39.830Z,45.65
2023-03-06T04:57:25.727Z,45.99
2023-03-06T05:00:11.600Z,45.27
2023-03-06T05:02:57.386Z,44.33
2023-03-06T05:05:43.454Z,43.61
2023-03-06T05:08:29.254Z,44.55
2023-03-06T05:11:15.123Z,44.45
2023-03-06T05:14:01.088Z,43.39
2023-03-06T05:16:46.743Z,44.00
2023-03-06T05:19:32.728Z,44.13
2023-03-06T05:22:18.578Z,43.37
2023-03-06T05:25:04.437Z,44.44
2023-03-06T05:27:50.482Z,43.30
2023-03-06T05:30:37.168Z,44.03
2023-03-06T05:33:23.140Z,43.91
2023-03-06T05:36:09.161Z,42.92
2023-03-06T05:38:55.067Z,44.86
2023-03-06T05:41:41.340Z,44.15
2023-03-06T05:44:27.078Z,43.28
2023-03-06T05:47:13.013Z,43.78
2023-03-06T05:49:58.892Z,42.86
2023-03-06T05:52:44.769Z,44.28
2023-03-06T05:55:30.536Z,42.85
2023-03-06T05:58:16.315Z,43.71
2023-03-06T06:01:02.141Z,43.51
2023-03-06T06:03:48.078Z,43.14
2023-03-06T06:06:33.931Z,43.18
2023-03-06T06:09:19.955Z,43.78
2023-03-06T06:12:07.858Z,44.04
2023-03-06T06:14:53.629Z,43.57
2023-03-06T06:17:40.132Z,43.82
2023-03-06T06:20:27.284Z,43.55
2023-03-06T06:23:13.127Z,43.86
2023-03-06T06:25:59.142Z,43.28
2023-03-06T06:28:45.045Z,42.94
2023-03-06T06:31:31.138Z,43.66
2023-03-06T06:34:17.012Z,43.09
2023-03-06T06:37:02.873Z,43.80
2023-03-06T06:39:48.845Z,44.45
2023-03-06T06:42:39.685Z,44.91
2023-03-06T06:45:26.055Z,44.37
2023-03-06T06:48:11.920Z,43.68
2023-03-06T06:50:57.835Z,43.03
2023-03-06T06:53:43.602Z,44.00
2023-03-06T06:56:29.486Z,45.06
2023-03-06T06:59:17.362Z,44.65
2023-03-06T07:02:03.539Z,44.15
2023-03-06T07:05:02.977Z,44.95
2023-03-06T07:07:49.731Z,44.91
2023-03-06T07:10:36.040Z,44.93
2023-03-06T07:13:22.029Z,44.60
2023-03-06T07:16:08.259Z,44.87
2023-03-06T07:18:54.626Z,45.23
2023-03-06T07:21:40.563Z,44.51
2023-03-06T07:24:26.981Z,45.35
2023-03-06T07:27:13.320Z,47.14
2023-03-06T07:30:00.452Z,47.78
2023-03-06T07:32:46.502Z,46.85
2023-03-06T07:35:32.545Z,46.07
2023-03-06T07:38:18.514Z,47.28
2023-03-06T07:41:04.366Z,46.82
2023-03-06T07:43:50.207Z,46.62
2023-03-06T07:46:36.137Z,46.69
2023-03-06T07:49:22.107Z,45.32
2023-03-06T07:52:08.185Z,45.54
2023-03-06T07:54:54.488Z,44.78
2023-03-06T07:57:40.379Z,44.31
2023-03-06T08:00:26.438Z,46.03
2023-03-06T08:03:12.772Z,45.36
2023-03-06T08:05:58.830Z,45.81
2023-03-06T08:08:44.729Z,45.64
2023-03-06T08:11:30.728Z,44.79
2023-03-06T08:14:16.760Z,45.00
2023-03-06T08:17:02.654Z,44.89
2023-03-06T08:19:48.628Z,45.10
2023-03-06T08:22:34.480Z,45.72
2023-03-06T08:25:20.281Z,44.96
2023-03-06T08:28:06.623Z,45.09
2023-03-06T08:30:52.658Z,44.37
2023-03-06T08:33:38.541Z,45.98
2023-03-06T08:36:24.646Z,46.95
2023-03-06T08:39:10.619Z,48.74
2023-03-06T08:41:56.617Z,48.68
2023-03-06T08:44:42.555Z,48.09
2023-03-06T08:47:28.515Z,49.09
2023-03-06T08:50:14.395Z,49.47
2023-03-06T08:53:01.871Z,48.73
2023-03-06T08:55:48.705Z,49.76
2023-03-06T08:58:34.553Z,47.00
2023-03-06T09:01:20.916Z,47.14
2023-03-06T09:04:06.727Z,48.59
2023-03-06T09:06:54.574Z,49.39
2023-03-06T09:09:41.660Z,50.39
2023-03-06T09:12:29.282Z,48.80
2023-03-06T09:15:16.846Z,46.12
2023-03-06T09:18:02.769Z,45.26
2023-03-06T09:20:48.577Z,41.45
2023-03-06T09:23:34.578Z,41.75
2023-03-06T09:26:28.021Z,42.94
2023-03-06T09:29:19.151Z,44.10
2023-03-06T09:32:05.170Z,45.33
2023-03-06T09:34:50.961Z,44.73
2023-03-06T09:37:36.964Z,47.03
2023-03-06T09:40:22.831Z,45.86
2023-03-06T09:43:08.732Z,46.95
2023-03-06T09:45:54.723Z,46.61
2023-03-06T09:48:40.686Z,45.20
2023-03-06T09:51:26.621Z,45.33
2023-03-06T09:54:12.516Z,45.61
2023-03-06T09:56:58.517Z,46.85
2023-03-06T09:59:44.315Z,45.43
2023-03-06T10:02:30.227Z,45.02
2023-03-06T10:05:16.531Z,45.09
2023-03-06T10:08:02.923Z,43.08
2023-03-06T10:10:48.809Z,43.06
2023-03-06T10:13:34.731Z,42.65
2023-03-06T10:16:20.677Z,44.54
2023-03-06T10:19:06.627Z,45.83
2023-03-06T10:21:52.542Z,40.49
2023-03-06T10:24:38.506Z,44.51
2023-03-06T10:27:24.481Z,41.43
2023-03-06T10:30:10.491Z,40.96
2023-03-06T10:32:56.379Z,37.65
2023-03-06T10:35:42.293Z,34.65
2023-03-06T10:38:28.267Z,33.99
2023-03-06T10:41:14.218Z,32.27
2023-03-06T10:44:00.414Z,35.26
2023-03-06T10:46:46.348Z,34.47
2023-03-06T10:49:32.239Z,34.08
2023-03-06T10:52:18.096Z,33.25
2023-03-06T10:55:03.974Z,33.75
2023-03-06T10:57:49.912Z,37.20
2023-03-06T11:00:35.810Z,32.79
2023-03-06T11:03:21.683Z,32.52
2023-03-06T11:06:07.739Z,31.92
2023-03-06T11:08:53.648Z,27.59
2023-03-06T11:11:39.670Z,29.01
2023-03-06T11:14:27.663Z,29.20
2023-03-06T11:17:13.655Z,30.59
2023-03-06T11:19:59.698Z,30.50
2023-03-06T11:22:47.539Z,30.28
2023-03-06T11:25:34.853Z,30.45
2023-03-06T11:28:20.827Z,29.75
2023-03-06T11:31:06.813Z,29.54
2023-03-06T11:33:52.823Z,28.47
2023-03-06T11:36:38.983Z,27.48
2023-03-06T11:39:25.130Z,25.87
2023-03-06T11:42:11.121Z,26.62
2023-03-06T11:44:57.088Z,26.00
2023-03-06T11:47:42.908Z,26.59
2023-03-06T11:50:29.003Z,27.58
2023-03-06T11:53:15.393Z,28.57
2023-03-06T11:56:01.261Z,28.44
2023-03-06T11:58:47.104Z,23.66
2023-03-06T12:01:32.970Z,24.41
2023-03-06T12:04:18.714Z,25.26
2023-03-06T12:07:07.221Z,25.34
2023-03-06T12:10:01.074Z,24.90
2023-03-06T12:12:48.540Z,24.38
2023-03-06T12:15:34.436Z,24.73
2023-03-06T12:18:21.454Z,24.02
2023-03-06T12:21:07.400Z,23.22
2023-03-06T12:23:53.136Z,24.38
2023-03-06T12:26:38.997Z,20.72
2023-03-06T12:29:25.136Z,17.70
2023-03-06T12:32:11.102Z,18.29
2023-03-06T12:34:57.069Z,17.66
2023-03-06T12:37:42.969Z,17.76
2023-03-06T12:40:29.011Z,17.87
2023-03-06T12:43:14.933Z,18.24
2023-03-06T12:46:00.825Z,18.33
2023-03-06T12:48:46.735Z,19.35
2023-03-06T12:51:32.805Z,17.40
2023-03-06T12:54:18.686Z,16.45
2023-03-06T12:57:04.479Z,16.64
2023-03-06T12:59:50.477Z,17.12
2023-03-06T13:02:36.427Z,17.69
2023-03-06T13:05:26.732Z,17.02
2023-03-06T13:08:13.089Z,15.14
2023-03-06T13:10:58.883Z,13.98
2023-03-06T13:13:44.858Z,13.61
2023-03-06T13:16:30.821Z,14.31
2023-03-06T13:19:16.900Z,13.86
2023-03-06T13:22:02.875Z,14.68
2023-03-06T13:24:50.819Z,15.80
2023-03-06T13:27:38.642Z,17.04
2023-03-06T13:30:24.623Z,18.25
2023-03-06T13:33:10.551Z,18.45
2023-03-06T13:35:56.488Z,18.11
2023-03-06T13:38:42.625Z,17.35
2023-03-06T13:41:28.480Z,16.45
2023-03-06T13:44:14.479Z,15.62
2023-03-06T13:47:00.414Z,16.33
2023-03-06T13:49:46.348Z,15.19
2023-03-06T13:52:32.333Z,14.92
2023-03-06T13:55:24.910Z,14.72
2023-03-06T13:58:10.968Z,14.57
2023-03-06T14:00:56.844Z,14.40
2023-03-06T14:03:42.880Z,13.86
2023-03-06T14:06:28.638Z,13.94
2023-03-06T14:09:14.498Z,14.77
2023-03-06T14:12:00.503Z,14.49
2023-03-06T14:14:46.601Z,16.49
2023-03-06T14:17:32.700Z,16.90
2023-03-06T14:20:18.672Z,17.10
2023-03-06T14:23:04.611Z,17.04
2023-03-06T14:25:50.444Z,16.95
2023-03-06T14:28:36.216Z,17.21
2023-03-06T14:31:22.225Z,17.52
2023-03-06T14:34:08.291Z,17.16
2023-03-06T14:36:54.331Z,16.37
2023-03-06T14:39:40.371Z,16.25
2023-03-06T14:42:26.166Z,15.91
2023-03-06T14:45:12.087Z,15.80
2023-03-06T14:47:58.128Z,14.69
2023-03-06T14:50:44.036Z,15.06
2023-03-06T14:53:30.009Z,15.74
2023-03-06T14:56:15.926Z,15.58
2023-03-06T14:59:01.801Z,15.58
2023-03-06T15:01:47.779Z,15.36
2023-03-06T15:04:36.239Z,15.31
2023-03-06T15:07:26.099Z,14.57
2023-03-06T15:10:11.966Z,14.97
2023-03-06T15:12:57.844Z,14.82
2023-03-06T15:15:43.692Z,14.53
2023-03-06T15:18:29.652Z,14.29
2023-03-06T15:21:15.539Z,15.19
2023-03-06T15:24:01.514Z,14.05
2023-03-06T15:26:47.470Z,14.49
2023-03-06T15:29:33.288Z,13.70
2023-03-06T15:32:19.165Z,14.16
2023-03-06T15:35:05.149Z,14.92
2023-03-06T15:37:51.081Z,14.51
2023-03-06T15:40:37.060Z,13.73
2023-03-06T15:43:22.896Z,14.56
2023-03-06T15:46:08.981Z,13.87
2023-03-06T15:48:54.977Z,13.96
2023-03-06T15:51:40.932Z,14.07
2023-03-06T15:54:26.800Z,13.98
2023-03-06T15:57:12.784Z,14.18
2023-03-06T15:59:58.786Z,12.76
2023-03-06T16:02:45.707Z,12.94
2023-03-06T16:05:34.702Z,13.70
2023-03-06T16:08:20.636Z,13.66
2023-03-06T16:11:06.569Z,13.81
2023-03-06T16:13:52.439Z,13.13
2023-03-06T16:16:38.431Z,14.07
2023-03-06T16:19:26.294Z,14.10
2023-03-06T16:22:13.518Z,13.80
2023-03-06T16:24:59.503Z,14.10
2023-03-06T16:27:45.635Z,14.36
2023-03-06T16:30:31.607Z,14.51
2023-03-06T16:33:17.574Z,14.50
2023-03-06T16:36:03.543Z,14.75
2023-03-06T16:38:49.420Z,15.41
2023-03-06T16:41:36.244Z,16.78
2023-03-06T16:44:25.622Z,15.63
2023-03-06T16:47:11.517Z,55.64
2023-03-06T16:49:57.611Z,28.45
2023-03-06T16:52:43.805Z,17.42
2023-03-06T16:55:29.712Z,15.06
2023-03-06T16:58:15.690Z,15.97
2023-03-06T17:01:01.646Z,15.14
2023-03-06T17:03:47.933Z,15.20
2023-03-06T17:06:33.931Z,15.70
2023-03-06T17:09:20.859Z,16.10
2023-03-06T17:12:06.796Z,16.08
2023-03-06T17:14:52.647Z,15.69
2023-03-06T17:17:40.418Z,16.43
2023-03-06T17:20:26.425Z,16.49
2023-03-06T17:23:12.429Z,16.32
2023-03-06T17:25:58.367Z,16.37
2023-03-06T17:28:44.359Z,16.44
2023-03-06T17:31:30.362Z,16.90
2023-03-06T17:34:16.282Z,16.48
2023-03-06T17:37:02.279Z,16.25
2023-03-06T17:39:48.258Z,16.28
2023-03-06T17:42:34.210Z,15.87
2023-03-06T17:45:20.358Z,15.79
2023-03-06T17:48:06.195Z,15.74
2023-03-06T17:50:52.124Z,15.99
2023-03-06T17:53:38.075Z,16.08
2023-03-06T17:56:23.965Z,17.27
2023-03-06T17:59:09.922Z,16.17
2023-03-06T18:01:55.857Z,16.57
2023-03-06T18:04:41.788Z,16.56
2023-03-06T18:07:29.896Z,16.04
2023-03-06T18:10:15.776Z,15.79
2023-03-06T18:13:01.728Z,15.78
2023-03-06T18:15:47.642Z,15.83
2023-03-06T18:18:33.993Z,16.00
2023-03-06T18:21:19.958Z,15.93
2023-03-06T18:24:05.961Z,16.51
2023-03-06T18:26:51.874Z,16.53
2023-03-06T18:29:37.973Z,16.43
2023-03-06T18:32:23.898Z,16.45
2023-03-06T18:35:09.712Z,16.16
2023-03-06T18:37:55.665Z,16.28
2023-03-06T18:40:41.502Z,16.42
2023-03-06T18:43:27.455Z,16.46
2023-03-06T18:46:13.547Z,17.37
2023-03-06T18:48:59.827Z,17.54
2023-03-06T18:51:45.781Z,16.71
2023-03-06T18:54:31.692Z,16.35
2023-03-06T18:57:17.534Z,16.85
2023-03-06T19:00:05.435Z,16.60
2023-03-06T19:02:51.352Z,16.99
2023-03-06T19:05:37.214Z,16.08
2023-03-06T19:08:23.124Z,15.56
2023-03-06T19:11:09.033Z,15.36
2023-03-06T19:13:55.347Z,14.82
2023-03-06T19:16:41.649Z,15.64
2023-03-06T19:19:27.560Z,15.14
2023-03-06T19:22:13.445Z,15.27
2023-03-06T19:25:06.601Z,15.37
2023-03-06T19:27:53.599Z,15.70
2023-03-06T19:30:39.343Z,14.73
2023-03-06T19:33:26.243Z,14.63
2023-03-06T19:36:12.234Z,14.36
2023-03-06T19:38:58.097Z,14.84
2023-03-06T19:41:44.047Z,14.48
2023-03-06T19:44:29.833Z,14.32
2023-03-06T19:47:15.827Z,14.00
2023-03-06T19:50:01.870Z,14.38
2023-03-06T19:52:48.261Z,14.57
2023-03-06T19:55:34.338Z,14.23
2023-03-06T19:58:20.175Z,15.10
2023-03-06T20:01:06.334Z,14.67
2023-03-06T20:03:52.591Z,14.46
2023-03-06T20:06:38.506Z,14.16
2023-03-06T20:09:24.437Z,14.32
2023-03-06T20:12:10.292Z,14.46
2023-03-06T20:14:56.206Z,14.83
2023-03-06T20:17:42.228Z,14.56
2023-03-06T20:20:28.636Z,14.18
2023-03-06T20:23:16.540Z,14.84
2023-03-06T20:26:02.900Z,14.80
2023-03-06T20:28:48.904Z,14.89
2023-03-06T20:31:34.728Z,14.55
2023-03-06T20:34:20.768Z,14.50
2023-03-06T20:37:06.602Z,14.31
2023-03-06T20:39:52.462Z,14.63
2023-03-06T20:42:38.951Z,14.57
2023-03-06T20:45:24.884Z,14.52
2023-03-06T20:48:10.625Z,14.43
2023-03-06T20:50:56.714Z,14.63
2023-03-06T20:53:42.522Z,14.90
2023-03-06T20:56:28.398Z,14.30
2023-03-06T20:59:14.292Z,13.87
2023-03-06T21:02:00.404Z,13.60
2023-03-06T21:04:46.669Z,13.35
2023-03-06T21:07:32.625Z,13.39
2023-03-06T21:10:18.553Z,13.32
2023-03-06T21:13:04.644Z,13.87
2023-03-06T21:15:50.559Z,14.20
2023-03-06T21:18:36.489Z,13.97
2023-03-06T21:21:22.351Z,13.99
2023-03-06T21:24:08.212Z,15.06
2023-03-06T21:26:54.246Z,14.77
2023-03-06T21:29:40.026Z,15.37
2023-03-06T21:32:25.889Z,15.59
2023-03-06T21:35:11.990Z,15.24
2023-03-06T21:37:57.744Z,15.06
2023-03-06T21:40:43.695Z,15.87
2023-03-06T21:43:29.499Z,15.86
2023-03-06T21:46:15.569Z,15.82
2023-03-06T21:49:01.679Z,16.31
2023-03-06T21:51:47.664Z,15.48
2023-03-06T21:54:33.694Z,15.37
2023-03-06T21:57:19.508Z,15.14
2023-03-06T22:00:05.475Z,15.39
2023-03-06T22:02:51.486Z,15.00
2023-03-06T22:05:37.197Z,15.27
2023-03-06T22:08:23.179Z,14.83
2023-03-06T22:11:09.137Z,14.98
2023-03-06T22:13:55.050Z,14.71
2023-03-06T22:16:41.562Z,14.93
2023-03-06T22:19:27.573Z,15.09
2023-03-06T22:22:13.577Z,15.54
2023-03-06T22:25:01.509Z,14.99
2023-03-06T22:27:48.994Z,14.55
2023-03-06T22:30:34.877Z,15.00
2023-03-06T22:33:21.026Z,15.21
2023-03-06T22:36:06.959Z,15.01
2023-03-06T22:38:53.034Z,15.24
2023-03-06T22:41:39.021Z,14.69
2023-03-06T22:44:24.831Z,15.37
2023-03-06T22:47:10.777Z,14.74
2023-03-06T22:49:56.782Z,14.71
2023-03-06T22:52:42.552Z,14.12
2023-03-06T22:55:28.433Z,14.14
2023-03-06T22:58:14.210Z,14.32
2023-03-06T23:01:00.240Z,14.44
2023-03-06T23:03:46.135Z,13.94
2023-03-06T23:06:32.047Z,14.41
2023-03-06T23:09:18.565Z,14.27
2023-03-06T23:12:04.469Z,14.50
2023-03-06T23:14:50.391Z,14.31
2023-03-06T23:17:36.195Z,14.25
2023-03-06T23:20:21.979Z,14.12
2023-03-06T23:23:07.928Z,13.69
2023-03-06T23:25:53.796Z,13.56
2023-03-06T23:28:39.602Z,14.03
2023-03-06T23:31:25.553Z,13.51
2023-03-06T23:34:11.512Z,13.97
2023-03-06T23:36:57.414Z,13.99
2023-03-06T23:39:43.446Z,14.33
2023-03-06T23:42:29.302Z,13.49
2023-03-06T23:45:15.231Z,13.52
2023-03-06T23:48:03.106Z,13.26
2023-03-06T23:50:48.963Z,13.65
2023-03-06T23:53:34.848Z,13.45
2023-03-06T23:56:20.881Z,13.85
2023-03-06T23:59:06.658Z,13.76
